Time;durP1;ratioP1;P1;durP2;ratioP2;P2;SDS_P1;SDS_P2;PMS_P1;PMS_P2;Temp;Humidity;BMP_temperature;BMP_pressure;BME280_temperature;BME280_humidity;BME280_pressure;Samples;Min_cycle;Max_cycle;Signal;HPM_P1;HPM_P2
2021/08/06 00:01:03;;;;;;;;;;;;;;;19.74;100.00;96858.88;5077392;28;19924;-77
2021/08/06 00:03:30;;;;;;;;;;;;;;;19.31;100.00;96861.78;5081205;28;19959;-76
2021/08/06 00:05:57;;;;;;;;;;;;;;;19.39;100.00;96859.91;5076173;28;19925;-77
2021/08/06 00:08:25;;;;;;;;;;;;;;;19.89;100.00;96861.25;5080647;28;19928;-77
2021/08/06 00:10:52;;;;;;;;;;;;;;;19.39;100.00;96857.06;5076227;28;19932;-77
2021/08/06 00:13:19;;;;;;;;;;;;;;;19.26;100.00;96854.13;5076900;28;19924;-77
2021/08/06 00:15:46;;;;;;;;;;;;;;;19.62;100.00;96851.84;5082174;28;19924;-77
2021/08/06 00:18:13;;;;;;;;;;;;;;;19.55;100.00;96852.47;5092774;28;19935;-77
2021/08/06 00:20:41;;;;;;;;;;;;;;;19.34;100.00;96857.16;5093276;28;19959;-77
2021/08/06 00:23:08;;;;;;;;;;;;;;;19.28;100.00;96851.53;5093334;28;19968;-77
2021/08/06 00:25:35;;;;;;;;;;;;;;;19.60;100.00;96843.91;5092156;28;19934;-76
2021/08/06 00:28:02;;;;;;;;;;;;;;;19.22;100.00;96839.50;5093437;28;20333;-77
2021/08/06 00:30:30;;;;;;;;;;;;;;;19.36;100.00;96846.81;5093416;28;19967;-77
2021/08/06 00:32:59;;;;;;;;;;;;;;;19.17;100.00;96850.91;5091734;28;19990;-76
2021/08/06 00:35:34;;;;;;;;;;;;;;;19.58;100.00;96842.91;5076672;28;19930;-76
2021/08/06 00:38:02;;;;;;;;;;;;;;;19.55;100.00;96844.72;5092079;28;19981;-77
2021/08/06 00:40:29;;;;;;;;;;;;;;;18.87;100.00;96847.41;5092107;28;19950;-77
2021/08/06 00:42:58;;;;;;;;;;;;;;;19.08;100.00;96846.38;5092002;28;19924;-77
2021/08/06 00:45:30;;;;;;;;;;;;;;;19.15;100.00;96842.94;5092102;28;20267;-77
2021/08/06 00:48:00;;;;;;;;;;;;;;;19.32;100.00;96840.69;5091620;28;19931;-76
2021/08/06 00:51:03;;;;;;;;;;;;;;;19.42;100.00;96839.00;5090859;28;20376;-76
2021/08/06 00:53:32;;;;;;;;;;;;;;;19.05;100.00;96841.75;5106622;28;19931;-76
2021/08/06 00:56:03;;;;;;;;;;;;;;;18.81;100.00;96838.97;5089738;28;19924;-76
2021/08/06 00:58:33;;;;;;;;;;;;;;;19.09;100.00;96838.63;5089769;28;19924;-76
2021/08/06 01:01:01;;;;;;;;;;;;;;;19.22;100.00;96839.50;5106435;28;20517;-76
2021/08/06 01:03:54;;;;;;;;;;;;;;;19.38;100.00;96840.59;5089369;28;20411;-76
2021/08/06 01:06:29;;;;;;;;;;;;;;;19.49;100.00;96837.63;5089490;28;20358;-76
2021/08/06 01:09:23;;;;;;;;;;;;;;;18.97;100.00;96832.34;5089380;28;19928;-76
2021/08/06 01:11:55;;;;;;;;;;;;;;;18.93;100.00;96837.53;5087737;28;19924;-76
2021/08/06 01:14:25;;;;;;;;;;;;;;;19.36;100.00;96838.31;5089535;28;19924;-76
2021/08/06 01:16:56;;;;;;;;;;;;;;;19.32;100.00;96837.88;5123135;28;19924;-76
2021/08/06 01:19:52;;;;;;;;;;;;;;;19.39;100.00;96840.06;5075760;28;19931;-76
2021/08/06 01:22:24;;;;;;;;;;;;;;;19.42;100.00;96833.34;5089175;28;19924;-76
2021/08/06 01:25:01;;;;;;;;;;;;;;;19.45;100.00;96837.94;5090372;28;19934;-76
2021/08/06 01:27:30;;;;;;;;;;;;;;;19.42;100.00;96827.69;5123104;28;19924;-76
2021/08/06 01:29:59;;;;;;;;;;;;;;;19.42;100.00;96839.00;5088941;28;19925;-76
2021/08/06 01:32:31;;;;;;;;;;;;;;;19.56;100.00;96820.78;5122833;28;20040;-76
2021/08/06 01:35:02;;;;;;;;;;;;;;;19.51;100.00;96821.63;5089126;28;20314;-77
2021/08/06 01:37:29;;;;;;;;;;;;;;;19.10;100.00;96826.78;5105600;28;19924;-77
2021/08/06 01:39:58;;;;;;;;;;;;;;;19.31;100.00;96822.16;5122746;28;19932;-76
2021/08/06 01:42:25;;;;;;;;;;;;;;;18.87;100.00;96822.69;5122912;28;19929;-76
2021/08/06 01:44:57;;;;;;;;;;;;;;;19.20;100.00;96822.28;5055957;28;20009;-77
2021/08/06 01:47:41;;;;;;;;;;;;;;;19.20;100.00;96819.47;5122838;28;19925;-76
2021/08/06 01:50:23;;;;;;;;;;;;;;;19.26;100.00;96825.81;5097405;28;19929;-76
2021/08/06 01:52:59;;;;;;;;;;;;;;;19.09;100.00;96824.47;5088854;28;19928;-77
2021/08/06 01:55:38;;;;;;;;;;;;;;;19.09;100.00;96818.81;5088662;28;20385;-76
2021/08/06 01:58:07;;;;;;;;;;;;;;;18.99;100.00;96820.50;5071863;28;20252;-76
2021/08/06 02:00:40;;;;;;;;;;;;;;;19.35;100.00;96813.38;5101762;28;19930;-76
2021/08/06 02:03:09;;;;;;;;;;;;;;;19.65;100.00;96811.91;5074787;28;19928;-76
2021/08/06 02:05:36;;;;;;;;;;;;;;;19.61;100.00;96807.84;5091908;28;19925;-76
2021/08/06 02:08:13;;;;;;;;;;;;;;;19.30;100.00;96800.03;5074645;28;19924;-76
2021/08/06 02:10:44;;;;;;;;;;;;;;;19.51;100.00;96806.69;5074886;28;19924;-77
2021/08/06 02:13:14;;;;;;;;;;;;;;;19.60;100.00;96804.25;5074327;28;19925;-76
2021/08/06 02:15:46;;;;;;;;;;;;;;;19.87;100.00;96799.47;5074548;28;19978;-76
2021/08/06 02:18:21;;;;;;;;;;;;;;;19.18;100.00;96790.16;5074828;28;20422;-76
2021/08/06 02:21:05;;;;;;;;;;;;;;;19.50;100.00;96794.63;5074388;28;19964;-76
2021/08/06 02:23:37;;;;;;;;;;;;;;;19.77;100.00;96789.81;5074600;28;19925;-76
2021/08/06 02:26:06;;;;;;;;;;;;;;;19.96;100.00;96787.72;5074335;28;19925;-77
2021/08/06 02:28:34;;;;;;;;;;;;;;;19.86;100.00;96786.59;5074340;28;19925;-76
2021/08/06 02:31:03;;;;;;;;;;;;;;;19.87;100.00;96793.78;5074313;28;19967;-76
2021/08/06 02:33:31;;;;;;;;;;;;;;;19.58;100.00;96792.69;5075493;28;19928;-76
2021/08/06 02:35:58;;;;;;;;;;;;;;;19.49;100.00;96787.41;5074100;28;19924;-75
2021/08/06 02:38:27;;;;;;;;;;;;;;;19.44;100.00;96791.09;5108066;28;20343;-75
2021/08/06 02:40:55;;;;;;;;;;;;;;;19.22;100.00;96784.97;5075240;28;19934;-75
2021/08/06 02:43:22;;;;;;;;;;;;;;;19.34;100.00;96794.84;5107768;28;19924;-75
2021/08/06 02:47:32;;;;;;;;;;;;;;;19.24;100.00;96794.44;5090380;28;19912;-76
2021/08/06 02:50:00;;;;;;;;;;;;;;;19.11;100.00;96790.75;5102438;28;19936;-76
2021/08/06 02:52:29;;;;;;;;;;;;;;;18.92;100.00;96796.41;5052439;28;20308;-76
2021/08/06 02:54:57;;;;;;;;;;;;;;;19.46;100.00;96794.16;5073108;28;20352;-76
2021/08/06 02:57:25;;;;;;;;;;;;;;;19.78;100.00;96790.59;5089018;28;20272;-76
2021/08/06 02:59:52;;;;;;;;;;;;;;;19.91;100.00;96785.72;5089194;28;20489;-76
2021/08/06 03:02:22;;;;;;;;;;;;;;;19.95;100.00;96782.59;5089058;28;19924;-76
2021/08/06 03:05:15;;;;;;;;;;;;;;;19.80;100.00;96780.25;5088729;28;19924;-77
2021/08/06 03:07:49;;;;;;;;;;;;;;;19.00;100.00;96783.19;5088698;28;20350;-76
2021/08/06 03:10:19;;;;;;;;;;;;;;;19.70;100.00;96779.88;5088865;28;20375;-77
2021/08/06 03:12:47;;;;;;;;;;;;;;;19.63;100.00;96777.69;5088324;28;19931;-77
2021/08/06 03:15:15;;;;;;;;;;;;;;;19.68;100.00;96776.84;5054629;28;19925;-77
2021/08/06 03:17:44;;;;;;;;;;;;;;;19.17;100.00;96775.25;5081844;28;20457;-76
2021/08/06 03:20:15;;;;;;;;;;;;;;;18.82;100.00;96774.69;5089138;28;19925;-77
2021/08/06 03:22:46;;;;;;;;;;;;;;;18.30;100.00;96780.63;5089379;28;19931;-77
2021/08/06 03:25:14;;;;;;;;;;;;;;;18.98;100.00;96780.13;5088913;28;19928;-77
2021/08/06 03:27:42;;;;;;;;;;;;;;;19.08;100.00;96769.97;5088916;28;19950;-76
2021/08/06 03:30:11;;;;;;;;;;;;;;;18.86;100.00;96775.13;5071749;28;19932;-76
2021/08/06 03:32:38;;;;;;;;;;;;;;;18.74;100.00;96768.84;5088888;28;19929;-77
2021/08/06 03:35:06;;;;;;;;;;;;;;;19.45;100.00;96772.03;5088662;28;19925;-77
2021/08/06 03:37:34;;;;;;;;;;;;;;;19.68;100.00;96765.50;5089112;28;20284;-77
2021/08/06 03:40:01;;;;;;;;;;;;;;;18.31;100.00;96772.91;5088735;28;19978;-76
2021/08/06 03:42:30;;;;;;;;;;;;;;;18.81;100.00;96768.25;5088820;28;19924;-77
2021/08/06 03:44:57;;;;;;;;;;;;;;;18.81;100.00;96768.25;5105511;28;20337;-76
2021/08/06 03:47:24;;;;;;;;;;;;;;;18.75;100.00;96776.03;5055061;28;19931;-77
2021/08/06 03:49:52;;;;;;;;;;;;;;;19.10;100.00;96767.34;5122502;28;19924;-77
2021/08/06 03:52:19;;;;;;;;;;;;;;;19.22;100.00;96762.31;5071425;28;20375;-77
2021/08/06 03:54:46;;;;;;;;;;;;;;;19.34;100.00;96761.63;5122420;28;19924;-77
2021/08/06 03:57:14;;;;;;;;;;;;;;;18.92;100.00;96759.63;5083726;28;19971;-77
2021/08/06 03:59:41;;;;;;;;;;;;;;;19.04;100.00;96758.16;5074732;28;19930;-77
2021/08/06 04:02:09;;;;;;;;;;;;;;;19.51;100.00;96762.16;5074877;28;19931;-77
2021/08/06 04:04:36;;;;;;;;;;;;;;;19.60;100.00;96764.59;5074592;28;20023;-77
2021/08/06 04:07:03;;;;;;;;;;;;;;;19.85;100.00;96756.72;5074863;28;19932;-77
2021/08/06 04:09:31;;;;;;;;;;;;;;;19.88;100.00;96760.53;5108245;28;19931;-77
2021/08/06 04:11:57;;;;;;;;;;;;;;;19.78;100.00;96753.75;5075818;28;20263;-77
2021/08/06 04:14:25;;;;;;;;;;;;;;;19.78;100.00;96753.75;5074491;28;19931;-77
2021/08/06 04:16:52;;;;;;;;;;;;;;;19.58;100.00;96755.84;5074604;28;19935;-77
2021/08/06 04:19:20;;;;;;;;;;;;;;;19.57;100.00;96765.66;5108248;28;19924;-77
2021/08/06 04:21:47;;;;;;;;;;;;;;;19.76;100.00;96759.97;5074682;28;19939;-77
2021/08/06 04:24:14;;;;;;;;;;;;;;;19.85;100.00;96756.72;5074210;28;19928;-77
2021/08/06 04:26:41;;;;;;;;;;;;;;;19.79;100.00;96758.13;5074279;28;19924;-77
2021/08/06 04:29:08;;;;;;;;;;;;;;;19.98;100.00;96759.59;5108471;28;19924;-77
2021/08/06 04:31:36;;;;;;;;;;;;;;;19.38;100.00;96753.63;5057457;28;19938;-77
2021/08/06 04:34:06;;;;;;;;;;;;;;;19.56;100.00;96764.16;5074470;28;19932;-77
2021/08/06 04:36:33;;;;;;;;;;;;;;;18.88;100.00;96756.34;5057596;28;19925;-77
2021/08/06 04:39:01;;;;;;;;;;;;;;;19.54;100.00;96763.13;5074103;28;19931;-76
2021/08/06 04:41:28;;;;;;;;;;;;;;;19.27;100.00;96765.09;5073926;28;19924;-77
2021/08/06 04:43:55;;;;;;;;;;;;;;;19.16;100.00;96748.22;5067638;28;19932;-77
2021/08/06 04:46:22;;;;;;;;;;;;;;;19.27;100.00;96759.44;5050156;28;19925;-77
2021/08/06 04:48:49;;;;;;;;;;;;;;;18.65;100.00;96766.41;5073982;28;19924;-76
2021/08/06 04:51:17;;;;;;;;;;;;;;;18.89;100.00;96763.53;5062793;28;20017;-76
2021/08/06 04:53:45;;;;;;;;;;;;;;;18.46;100.00;96753.50;5054566;28;19931;-77
2021/08/06 04:56:12;;;;;;;;;;;;;;;17.79;100.00;96764.69;5074005;28;19928;-77
2021/08/06 04:58:41;;;;;;;;;;;;;;;18.75;100.00;96769.63;5107511;28;20391;-77
2021/08/06 05:01:08;;;;;;;;;;;;;;;18.63;100.00;96759.75;5073831;28;19925;-77
2021/08/06 05:03:36;;;;;;;;;;;;;;;19.24;100.00;96757.63;5073753;28;19924;-77
2021/08/06 05:06:03;;;;;;;;;;;;;;;19.00;100.00;96754.13;5073659;28;19928;-77
2021/08/06 05:08:32;;;;;;;;;;;;;;;19.42;100.00;96748.41;5073093;28;20433;-77
2021/08/06 05:10:59;;;;;;;;;;;;;;;19.63;100.00;96748.56;5073046;28;20011;-77
2021/08/06 05:13:26;;;;;;;;;;;;;;;19.40;100.00;96742.50;5073652;28;20023;-77
2021/08/06 05:15:54;;;;;;;;;;;;;;;19.05;100.00;96733.47;5073533;28;19986;-77
2021/08/06 05:18:21;;;;;;;;;;;;;;;19.14;100.00;96742.34;5039849;28;19929;-76
2021/08/06 05:20:48;;;;;;;;;;;;;;;19.45;100.00;96752.97;5065856;28;19924;-77
2021/08/06 05:24:14;;;;;;;;;;;;;;;19.33;100.00;96751.63;5090872;28;19975;-76
2021/08/06 05:26:41;;;;;;;;;;;;;;;19.64;100.00;96750.88;5089655;28;19931;-77
2021/08/06 05:29:08;;;;;;;;;;;;;;;19.66;100.00;96742.59;5072876;28;19971;-77
2021/08/06 05:31:36;;;;;;;;;;;;;;;19.37;100.00;96746.41;5090726;28;19931;-76
2021/08/06 05:34:03;;;;;;;;;;;;;;;19.55;100.00;96750.53;5089539;28;19940;-76
2021/08/06 05:36:31;;;;;;;;;;;;;;;19.61;100.00;96743.44;5106276;28;20283;-77
2021/08/06 05:38:59;;;;;;;;;;;;;;;18.59;100.00;96733.81;5089486;28;20189;-77
2021/08/06 05:41:26;;;;;;;;;;;;;;;18.04;100.00;96740.06;5072628;28;20295;-76
2021/08/06 05:43:54;;;;;;;;;;;;;;;18.19;100.00;96751.72;5072347;28;19924;-77
2021/08/06 05:46:22;;;;;;;;;;;;;;;18.50;100.00;96745.50;5089327;28;19932;-76
2021/08/06 05:48:50;;;;;;;;;;;;;;;18.97;100.00;96738.22;5089186;28;20019;-77
2021/08/06 05:51:17;;;;;;;;;;;;;;;19.43;100.00;96744.25;5090177;28;19925;-77
2021/08/06 05:53:45;;;;;;;;;;;;;;;19.47;100.00;96736.22;5106131;28;20038;-81
2021/08/06 05:56:13;;;;;;;;;;;;;;;19.67;100.00;96729.97;5069574;28;19931;-79
2021/08/06 05:58:46;;;;;;;;;;;;;;;19.13;100.00;96732.31;5047258;28;20330;-78
2021/08/06 06:01:13;;;;;;;;;;;;;;;19.51;100.00;96728.19;5056761;28;19928;-77
2021/08/06 06:03:52;;;;;;;;;;;;;;;19.66;100.00;96733.34;5076917;28;20020;-78
2021/08/06 06:06:39;;;;;;;;;;;;;;;19.53;100.00;96731.25;5094803;28;20323;-77
2021/08/06 06:09:08;;;;;;;;;;;;;;;18.87;100.00;96725.75;5085574;28;19932;-78
2021/08/06 06:11:36;;;;;;;;;;;;;;;18.82;100.00;96735.84;5085098;28;19931;-78
2021/08/06 06:14:05;;;;;;;;;;;;;;;19.11;100.00;96734.94;5086426;28;19931;-78
2021/08/06 06:16:33;;;;;;;;;;;;;;;19.47;100.00;96724.13;5052589;28;19924;-78
2021/08/06 06:19:00;;;;;;;;;;;;;;;19.69;100.00;96721.69;5084962;28;19924;-78
2021/08/06 06:21:27;;;;;;;;;;;;;;;18.70;100.00;96728.81;5067801;28;19936;-77
2021/08/06 06:23:55;;;;;;;;;;;;;;;18.52;100.00;96738.03;5085265;28;20133;-78
2021/08/06 06:26:23;;;;;;;;;;;;;;;19.29;100.00;96739.84;5068209;28;19925;-78
2021/08/06 06:28:51;;;;;;;;;;;;;;;18.46;100.00;96728.84;5084691;28;19924;-77
2021/08/06 06:31:19;;;;;;;;;;;;;;;18.69;100.00;96729.34;5067735;28;20343;-78
2021/08/06 06:33:46;;;;;;;;;;;;;;;18.99;100.00;96739.19;5081155;28;20049;-78
2021/08/06 06:36:13;;;;;;;;;;;;;;;19.11;100.00;96734.16;5071201;28;20284;-78
2021/08/06 06:38:40;;;;;;;;;;;;;;;19.19;100.00;96733.00;5088521;28;19924;-79
2021/08/06 06:41:08;;;;;;;;;;;;;;;19.70;100.00;96739.47;5071005;28;19990;-79
2021/08/06 06:43:37;;;;;;;;;;;;;;;19.23;100.00;96736.31;5071098;28;19928;-78
2021/08/06 06:46:04;;;;;;;;;;;;;;;19.48;100.00;96734.91;5073637;28;19924;-78
2021/08/06 06:48:32;;;;;;;;;;;;;;;19.51;100.00;96733.06;5057227;28;19936;-78
2021/08/06 06:51:01;;;;;;;;;;;;;;;19.52;100.00;96735.34;5074633;28;19967;-78
2021/08/06 06:53:31;;;;;;;;;;;;;;;18.93;100.00;96740.59;5074590;28;19989;-78
2021/08/06 06:55:59;;;;;;;;;;;;;;;19.39;100.00;96743.81;5041694;28;20019;-79
2021/08/06 06:58:26;;;;;;;;;;;;;;;19.21;100.00;96738.91;5074341;28;20318;-78
2021/08/06 07:00:56;;;;;;;;;;;;;;;19.14;100.00;96747.25;5074526;28;20019;-78
2021/08/06 07:03:24;;;;;;;;;;;;;;;19.34;100.00;96741.06;5072506;28;19931;-78
2021/08/06 07:05:51;;;;;;;;;;;;;;;18.95;100.00;96741.56;5044675;28;19929;-78
2021/08/06 07:08:23;;;;;;;;;;;;;;;19.39;100.00;96757.97;5034573;28;19968;-78
2021/08/06 07:10:51;;;;;;;;;;;;;;;19.97;100.00;96740.28;5062761;28;19960;-77
2021/08/06 07:13:18;;;;;;;;;;;;;;;19.32;100.00;96743.66;5050771;28;20291;-76
2021/08/06 07:15:46;;;;;;;;;;;;;;;19.73;100.00;96743.28;5041735;28;19925;-77
2021/08/06 07:18:13;;;;;;;;;;;;;;;19.73;100.00;96749.72;5050690;28;19928;-77
2021/08/06 07:20:41;;;;;;;;;;;;;;;19.82;100.00;96751.38;5051293;28;19936;-77
2021/08/06 07:23:08;;;;;;;;;;;;;;;19.61;100.00;96754.78;5029046;28;20352;-78
2021/08/06 07:25:36;;;;;;;;;;;;;;;19.02;100.00;96748.69;5065774;28;19931;-78
2021/08/06 07:28:08;;;;;;;;;;;;;;;19.18;100.00;96748.47;5077925;28;19938;-78
2021/08/06 07:30:36;;;;;;;;;;;;;;;19.44;100.00;96745.03;5029823;28;19929;-79
2021/08/06 07:33:04;;;;;;;;;;;;;;;19.81;100.00;96738.50;5044054;28;19940;-78
2021/08/06 07:35:33;;;;;;;;;;;;;;;19.65;100.00;96746.75;5029938;28;19925;-81
2021/08/06 07:38:00;;;;;;;;;;;;;;;19.88;100.00;96737.88;5063704;28;19934;-79
2021/08/06 07:40:28;;;;;;;;;;;;;;;20.04;100.00;96739.66;5065332;28;20455;-79
2021/08/06 07:42:56;;;;;;;;;;;;;;;20.67;100.00;96739.50;5046131;28;19952;-79
2021/08/06 07:45:25;;;;;;;;;;;;;;;20.82;100.00;96736.88;5073780;28;20376;-79
2021/08/06 07:47:55;;;;;;;;;;;;;;;20.00;100.00;96737.16;5053430;28;19924;-80
2021/08/06 07:50:22;;;;;;;;;;;;;;;20.49;100.00;96746.06;5053589;28;20253;-79
2021/08/06 07:52:49;;;;;;;;;;;;;;;20.43;100.00;96745.41;5070263;28;19951;-81
2021/08/06 07:55:17;;;;;;;;;;;;;;;20.29;100.00;96743.88;5053135;28;19935;-78
2021/08/06 07:57:46;;;;;;;;;;;;;;;20.29;100.00;96741.03;5053534;28;19931;-79
2021/08/06 08:00:14;;;;;;;;;;;;;;;20.41;100.00;96745.94;5053342;28;19932;-79
2021/08/06 08:02:45;;;;;;;;;;;;;;;20.51;100.00;96752.72;5044276;28;19931;-80
2021/08/06 08:05:23;;;;;;;;;;;;;;;20.40;100.00;96749.34;5041392;28;19924;-79
2021/08/06 08:07:57;;;;;;;;;;;;;;;20.40;100.00;96749.34;5064241;28;19925;-79
2021/08/06 08:10:26;;;;;;;;;;;;;;;20.30;100.00;96751.06;5053201;28;20395;-80
2021/08/06 08:13:14;;;;;;;;;;;;;;;20.48;100.00;96747.34;5053034;28;19964;-79
2021/08/06 08:15:46;;;;;;;;;;;;;;;20.71;100.00;96756.97;5066796;28;19947;-79
2021/08/06 08:18:13;;;;;;;;;;;;;;;20.42;100.00;96752.38;5069572;28;19924;-79
2021/08/06 08:20:41;;;;;;;;;;;;;;;20.38;100.00;96743.44;5060638;28;19928;-78
2021/08/06 08:23:10;;;;;;;;;;;;;;;20.15;100.00;96745.16;5050534;28;20372;-79
2021/08/06 08:25:38;;;;;;;;;;;;;;;20.35;100.00;96753.81;5058829;28;19928;-79
2021/08/06 08:28:06;;;;;;;;;;;;;;;20.69;100.00;96760.34;5063166;28;20282;-77
2021/08/06 08:30:36;;;;;;;;;;;;;;;19.92;100.00;96756.09;5076375;28;19929;-78
2021/08/06 08:33:05;;;;;;;;;;;;;;;19.92;100.00;96772.34;5064406;28;19991;-78
2021/08/06 08:35:34;;;;;;;;;;;;;;;19.58;100.00;96774.94;5060419;28;19924;-78
2021/08/06 08:38:02;;;;;;;;;;;;;;;19.83;100.00;96767.09;5057877;28;19924;-78
2021/08/06 08:40:29;;;;;;;;;;;;;;;19.85;100.00;96770.91;5085142;28;19931;-78
2021/08/06 08:42:57;;;;;;;;;;;;;;;20.08;100.00;96768.44;5049738;28;19925;-79
2021/08/06 08:45:25;;;;;;;;;;;;;;;19.73;100.00;96767.47;5064460;28;19978;-79
2021/08/06 08:47:52;;;;;;;;;;;;;;;19.73;100.00;96770.28;5066607;28;20021;-78
2021/08/06 08:50:20;;;;;;;;;;;;;;;20.10;100.00;96771.50;5066556;28;20434;-77
2021/08/06 08:52:47;;;;;;;;;;;;;;;20.10;100.00;96777.19;5066673;28;19935;-78
2021/08/06 08:55:15;;;;;;;;;;;;;;;20.26;100.00;96778.97;5066687;28;19934;-78
2021/08/06 08:57:45;;;;;;;;;;;;;;;20.28;100.00;96773.53;5048403;28;19928;-77
2021/08/06 09:00:15;;;;;;;;;;;;;;;19.98;100.00;96792.84;5060684;28;19925;-78
2021/08/06 09:02:44;;;;;;;;;;;;;;;20.66;100.00;96786.22;5043710;28;19924;-78
2021/08/06 09:05:12;;;;;;;;;;;;;;;20.45;100.00;96788.16;5060740;28;20016;-78
2021/08/06 09:07:44;;;;;;;;;;;;;;;20.54;100.00;96790.59;5050628;28;19924;-77
2021/08/06 09:10:40;;;;;;;;;;;;;;;20.27;100.00;96784.09;5054978;28;19937;-77
2021/08/06 09:13:11;;;;;;;;;;;;;;;20.45;100.00;96786.09;5069622;28;20537;-77
2021/08/06 09:15:53;;;;;;;;;;;;;;;20.81;100.00;96789.28;5070997;28;19925;-77
2021/08/06 09:18:34;;;;;;;;;;;;;;;20.67;100.00;96790.56;5066300;28;19925;-77
2021/08/06 09:21:03;;;;;;;;;;;;;;;20.65;100.00;96793.19;5068435;28;19928;-78
2021/08/06 09:23:36;;;;;;;;;;;;;;;20.48;100.00;96784.22;5069199;28;19930;-77
2021/08/06 09:26:03;;;;;;;;;;;;;;;20.31;100.00;96786.63;5068482;28;20022;-78
2021/08/06 09:28:31;;;;;;;;;;;;;;;20.46;100.00;96786.88;5068793;28;19943;-78
2021/08/06 09:31:12;;;;;;;;;;;;;;;20.56;100.00;96785.88;5071658;28;19928;-78
2021/08/06 09:33:40;;;;;;;;;;;;;;;20.84;100.00;96794.59;5072097;28;19963;-78
2021/08/06 09:36:15;;;;;;;;;;;;;;;20.83;100.00;96793.09;5070045;28;19970;-79
2021/08/06 09:38:43;;;;;;;;;;;;;;;20.86;100.00;96796.91;5056503;28;19961;-79
2021/08/06 09:41:30;;;;;;;;;;;;;;;20.81;100.00;96800.63;5068311;28;19935;-79
2021/08/06 09:44:16;;;;;;;;;;;;;;;20.57;100.00;96793.06;5050174;28;19925;-79
2021/08/06 09:46:44;;;;;;;;;;;;;;;20.37;100.00;96785.19;5052980;28;19967;-78
2021/08/06 09:50:01;;;;;;;;;;;;;;;20.60;100.00;96785.56;5110946;27;20371;-78
2021/08/06 09:52:29;;;;;;;;;;;;;;;20.42;100.00;96780.72;5089875;28;20007;-79
2021/08/06 09:55:07;;;;;;;;;;;;;;;20.29;100.00;96783.56;5091040;28;19932;-78
2021/08/06 09:57:35;;;;;;;;;;;;;;;19.96;100.00;96795.44;5072637;28;19925;-78
2021/08/06 10:00:02;;;;;;;;;;;;;;;20.46;100.00;96792.53;5089931;28;19932;-79
2021/08/06 10:02:40;;;;;;;;;;;;;;;20.54;100.00;96787.75;5089605;28;19930;-79
2021/08/06 10:05:08;;;;;;;;;;;;;;;20.85;100.00;96789.69;5088361;28;19925;-79
2021/08/06 10:07:35;;;;;;;;;;;;;;;20.77;100.00;96780.31;5089824;28;19931;-78
2021/08/06 10:10:04;;;;;;;;;;;;;;;20.48;100.00;96784.22;5090212;28;19931;-79
2021/08/06 10:12:32;;;;;;;;;;;;;;;20.35;100.00;96781.38;5088908;28;19998;-79
2021/08/06 10:15:03;;;;;;;;;;;;;;;20.79;100.00;96786.22;5074035;28;19968;-79
2021/08/06 10:17:31;;;;;;;;;;;;;;;20.64;100.00;96786.00;5091670;28;20482;-79
2021/08/06 10:19:58;;;;;;;;;;;;;;;21.37;100.00;96784.00;5070512;28;20384;-79
2021/08/06 10:22:25;;;;;;;;;;;;;;;21.12;100.00;96789.16;5080756;28;19928;-79
2021/08/06 10:24:54;;;;;;;;;;;;;;;21.13;100.00;96781.38;5076238;28;19990;-79
2021/08/06 10:27:22;;;;;;;;;;;;;;;21.26;100.00;96790.66;5080242;28;20032;-78
2021/08/06 10:30:09;;;;;;;;;;;;;;;21.41;100.00;96784.41;5084238;28;20363;-79
2021/08/06 10:32:37;;;;;;;;;;;;;;;21.61;100.00;96785.75;5100497;28;19950;-78
2021/08/06 10:35:04;;;;;;;;;;;;;;;21.54;100.00;96780.75;5101554;28;20011;-79
2021/08/06 10:37:54;;;;;;;;;;;;;;;21.43;100.00;96781.78;5090290;28;20409;-79
2021/08/06 10:40:35;;;;;;;;;;;;;;;21.39;100.00;96795.53;5098731;28;20625;-79
2021/08/06 10:43:08;;;;;;;;;;;;;;;21.02;100.00;96804.34;5102852;28;20349;-78
2021/08/06 10:45:45;;;;;;;;;;;;;;;20.71;100.00;96808.81;5070836;28;19987;-77
2021/08/06 10:48:34;;;;;;;;;;;;;;;20.56;100.00;96807.81;5077602;28;19936;-77
2021/08/06 10:51:17;;;;;;;;;;;;;;;20.92;100.00;96800.38;5081146;28;19948;-78
2021/08/06 10:53:59;;;;;;;;;;;;;;;21.04;100.00;96810.22;5084891;28;19924;-78
2021/08/06 10:56:28;;;;;;;;;;;;;;;20.96;100.00;96807.28;5062570;28;19928;-77
2021/08/06 10:58:59;;;;;;;;;;;;;;;21.26;100.00;96806.94;5101093;28;19924;-78
2021/08/06 11:01:34;;;;;;;;;;;;;;;21.60;100.00;96806.97;5088754;28;19924;-78
2021/08/06 11:04:02;;;;;;;;;;;;;;;21.99;100.00;96810.44;5074488;28;19978;-78
2021/08/06 11:06:33;;;;;;;;;;;;;;;22.32;100.00;96803.94;5070218;28;20015;-79
2021/08/06 11:09:03;;;;;;;;;;;;;;;21.95;100.00;96801.50;5070398;28;20423;-79
2021/08/06 11:11:44;;;;;;;;;;;;;;;21.97;100.00;96800.94;5069231;28;19931;-79
2021/08/06 11:14:12;;;;;;;;;;;;;;;22.37;100.00;96800.16;5070282;28;19925;-78
2021/08/06 11:16:58;;;;;;;;;;;;;;;21.89;100.00;96812.22;5058732;28;19924;-78
2021/08/06 11:19:30;;;;;;;;;;;;;;;22.55;100.00;96815.53;5051258;28;19924;-76
2021/08/06 11:21:57;;;;;;;;;;;;;;;22.59;100.00;96816.69;5071029;28;19928;-79
2021/08/06 11:24:25;;;;;;;;;;;;;;;21.44;100.00;96811.69;5053132;28;19931;-77
2021/08/06 11:26:53;;;;;;;;;;;;;;;21.27;100.00;96825.50;5052763;28;19928;-78
2021/08/06 11:29:20;;;;;;;;;;;;;;;21.41;100.00;96824.16;5068945;28;20294;-79
2021/08/06 11:32:07;;;;;;;;;;;;;;;21.11;100.00;96835.13;5067078;28;19931;-79
2021/08/06 11:34:49;;;;;;;;;;;;;;;20.62;100.00;96845.34;5068497;28;19928;-79
2021/08/06 11:37:17;;;;;;;;;;;;;;;20.96;100.00;96837.78;5087312;28;19924;-80
2021/08/06 11:40:03;;;;;;;;;;;;;;;20.93;100.00;96836.75;5084071;28;19928;-79
2021/08/06 11:42:30;;;;;;;;;;;;;;;20.84;100.00;96834.34;5085896;28;19925;-85
2021/08/06 11:44:57;;;;;;;;;;;;;;;21.00;100.00;96835.34;5088069;28;19928;-81
2021/08/06 11:47:37;;;;;;;;;;;;;;;21.24;100.00;96818.06;5070368;28;19931;-82
2021/08/06 11:50:05;;;;;;;;;;;;;;;21.26;100.00;96819.03;5068875;28;19925;-82
2021/08/06 11:52:59;;;;;;;;;;;;;;;21.23;100.00;96825.06;5071928;28;19932;-81
2021/08/06 11:55:30;;;;;;;;;;;;;;;21.58;100.00;96820.94;5067745;28;20397;-81
2021/08/06 11:57:57;;;;;;;;;;;;;;;21.66;100.00;96816.88;5071699;28;20384;-79
2021/08/06 12:00:26;;;;;;;;;;;;;;;21.64;100.00;96828.06;5051989;28;20299;-80
2021/08/06 12:03:00;;;;;;;;;;;;;;;22.02;100.00;96826.41;5054845;28;20433;-81
2021/08/06 12:05:27;;;;;;;;;;;;;;;21.64;100.00;96825.22;5067622;28;19924;-82
2021/08/06 12:07:54;;;;;;;;;;;;;;;21.28;100.00;96839.16;5070611;28;20296;-81
2021/08/06 12:10:25;;;;;;;;;;;;;;;21.14;100.00;96851.06;5063460;28;20277;-81
2021/08/06 12:12:53;;;;;;;;;;;;;;;20.89;100.00;96841.22;5071458;28;20059;-81
2021/08/06 12:15:22;;;;;;;;;;;;;;;20.70;100.00;96849.84;5074198;28;19925;-81
2021/08/06 12:18:08;;;;;;;;;;;;;;;20.24;100.00;96866.63;5075115;28;19936;-81
2021/08/06 12:20:39;;;;;;;;;;;;;;;20.05;100.00;96871.56;5072942;28;20153;-81
2021/08/06 12:23:07;;;;;;;;;;;;;;;19.47;100.00;96863.66;5090898;28;20442;-81
2021/08/06 12:25:34;;;;;;;;;;;;;;;20.05;100.00;96874.41;5056634;28;20325;-80
2021/08/06 12:28:03;;;;;;;;;;;;;;;20.01;100.00;96868.28;5084892;28;20421;-80
2021/08/06 12:30:32;;;;;;;;;;;;;;;19.93;100.00;96879.47;5073699;28;19956;-81
2021/08/06 12:33:00;;;;;;;;;;;;;;;20.23;100.00;96874.38;5058344;28;19968;-81
2021/08/06 12:35:27;;;;;;;;;;;;;;;20.41;100.00;96872.78;5042685;28;19925;-81
2021/08/06 12:37:54;;;;;;;;;;;;;;;20.57;100.00;96866.81;5064585;28;19925;-81
2021/08/06 12:40:21;;;;;;;;;;;;;;;20.91;100.00;96878.34;5064148;28;19925;-81
2021/08/06 12:42:48;;;;;;;;;;;;;;;20.03;100.00;96885.50;5069671;28;20383;-81
2021/08/06 12:45:21;;;;;;;;;;;;;;;19.86;100.00;96887.84;5068075;28;19924;-80
2021/08/06 12:47:48;;;;;;;;;;;;;;;19.42;100.00;96903.34;5073291;28;19925;-81
2021/08/06 12:50:21;;;;;;;;;;;;;;;19.61;100.00;96902.06;5069467;28;19931;-80
2021/08/06 12:53:04;;;;;;;;;;;;;;;19.50;100.00;96902.22;5071014;28;19978;-81
2021/08/06 12:55:32;;;;;;;;;;;;;;;19.54;100.00;96901.91;5069788;28;19931;-81